TimeAST,TemperatureF,Dew PointF,Humidity,Sea Level PressureIn,VisibilityMPH,Wind Direction,Wind SpeedMPH,Gust SpeedMPH,PrecipitationIn,Events,Conditions,WindDirDegrees,DateUTC
12:56 AM,77.0,66.9,71,30.09,10.0,NE,15.0,23.0,0.00,,Scattered Clouds,50,2013-02-11 04:56:00
1:56 AM,77.0,66.9,71,30.08,10.0,NE,15.0,-,N/A,,Scattered Clouds,50,2013-02-11 05:56:00
2:56 AM,77.0,66.9,71,30.06,10.0,NE,16.1,20.7,N/A,,Scattered Clouds,50,2013-02-11 06:56:00
3:56 AM,77.0,68.0,74,30.05,10.0,NE,12.7,-,N/A,,Scattered Clouds,50,2013-02-11 07:56:00
4:56 AM,75.9,64.9,69,30.06,10.0,ENE,13.8,-,N/A,,Scattered Clouds,70,2013-02-11 08:56:00
5:56 AM,75.9,66.9,74,30.06,10.0,ENE,13.8,-,0.00,,Scattered Clouds,70,2013-02-11 09:56:00
6:56 AM,73.9,69.1,85,30.08,10.0,East,4.6,-,0.06,,Mostly Cloudy,100,2013-02-11 10:56:00
7:56 AM,75.9,68.0,76,30.10,10.0,ENE,13.8,20.7,N/A,,Mostly Cloudy,70,2013-02-11 11:56:00
8:56 AM,78.1,69.1,74,30.12,10.0,ENE,13.8,-,N/A,,Scattered Clouds,60,2013-02-11 12:56:00
9:56 AM,77.0,70.0,79,30.13,6.0,NE,19.6,25.3,0.00,Rain,Rain,50,2013-02-11 13:56:00
10:56 AM,79.0,71.1,77,30.13,8.0,ENE,16.1,21.9,0.04,Rain,Rain,60,2013-02-11 14:56:00
11:56 AM,80.1,68.0,67,30.12,10.0,ENE,16.1,24.2,0.03,,Mostly Cloudy,70,2013-02-11 15:56:00
12:56 PM,81.0,69.1,67,30.10,10.0,East,17.3,25.3,N/A,,Scattered Clouds,80,2013-02-11 16:56:00
1:56 PM,80.1,69.1,69,30.09,10.0,ENE,18.4,25.3,N/A,,Mostly Cloudy,60,2013-02-11 17:56:00
2:56 PM,78.1,69.1,74,30.07,10.0,ENE,13.8,-,0.00,,Scattered Clouds,60,2013-02-11 18:56:00
3:56 PM,78.1,70.0,76,30.06,10.0,NE,20.7,28.8,0.02,Rain,Light Rain,50,2013-02-11 19:56:00
4:56 PM,75.9,69.1,79,30.06,10.0,ENE,17.3,-,0.00,,Scattered Clouds,60,2013-02-11 20:56:00
5:56 PM,75.9,68.0,76,30.06,10.0,NE,16.1,26.5,0.02,Rain,Light Rain,50,2013-02-11 21:56:00
6:56 PM,75.9,66.9,74,30.07,10.0,NE,16.1,27.6,0.00,,Mostly Cloudy,50,2013-02-11 22:56:00
7:56 PM,75.9,66.0,71,30.09,10.0,NE,19.6,26.5,N/A,,Mostly Cloudy,50,2013-02-11 23:56:00
8:56 PM,75.9,64.9,69,30.10,10.0,ENE,18.4,-,N/A,,Mostly Cloudy,60,2013-02-12 00:56:00
9:56 PM,75.9,64.0,67,30.11,10.0,ENE,13.8,23.0,N/A,,Scattered Clouds,60,2013-02-12 01:56:00
10:56 PM,75.9,64.0,67,30.12,10.0,ENE,16.1,-,N/A,,Scattered Clouds,60,2013-02-12 02:56:00
11:56 PM,75.0,61.0,62,30.12,10.0,NE,13.8,20.7,N/A,,Mostly Cloudy,50,2013-02-12 03:56:00